Airfield :
LOGIN :

Register | Disclaimer

   EN    FR    IT 

 










Legend :    VFR   Marginal VFR   IFR   Intensive IFR   Very Intensive IFR
Visi :
Ceiling :
>= 8 km
>= 3000ft
5 to 8 km
1000 to 3000 ft
1500m to 5 km
500 to 1000 ft
800 to 1500m
200 to 500 ft
< 800m
< 200 ft
Symbols :   Thunderstorms  Fog  Heavy snow  Heavy precipitations  Wind > 20 kt
SIGMETs :     Misc.  Thunderstorms  Icing  Turbulence  Mountain Waves  Volcanic Ashes







- Airport Elevation : 741 ft
- IATA code : PED


LKPD - Pardubice AB

CURRENT METAR :
  • 111300Z 28013KT 9999 -RA SCT012 BKN026 OVC034 02/01 Q1012 NOSIG RMK BLU BLU

EXPIRED METARs :
  • 111200Z 28013KT 9999 -RA BKN012 OVC017 03/01 Q1011 NOSIG RMK GRN GRN
  • 111100Z 28016KT 9999 -RA BKN012 OVC018 02/01 Q1011 NOSIG RMK GRN GRN

TAF TAF LKPD
Valid from the 11 at 12:00 until the 12 at 12:00 UTC


111100Z 1112/1212 28015KT 9999 BKN025 OVC040
TEMPO 1112/1115 28018G28KT
TEMPO 1112/1119 6000 RASN BKN015 OVC020
BECMG 1117/1119 28008KT
TEMPO 1119/1209 5000 SN BKN012
PROB30
TEMPO 1119/1209 2000 SN OVC007
No reported NOTAMs for that airfield.



MET'MAP, your aeronautical weather chart ! - Copyright ORBIFLY December 2007 - Disclaimer

ORBIFLY MET'MAP TEAM :

Programming & Development : Alexandra Zaïnal
Concept & Development : Baudouin d'Aumeries
Co-Development & Prog : Marc-Olivier Méhu
Technical & hardware support : Manuel Goepfert

Contact : metmap@orbifly.com




SOURCES & CREDITS :

   NOAA